Time;durP1;ratioP1;P1;durP2;ratioP2;P2;SDS_P1;SDS_P2;PMS_P1;PMS_P2;Temp;Humidity;BMP_temperature;BMP_pressure;BME280_temperature;BME280_humidity;BME280_pressure;Samples;Min_cycle;Max_cycle;Signal;HPM_P1;HPM_P2
2023/08/28 00:01:04;;;;;;;10.57;8.18;;;21.80;99.90;;;;;;5043881;28;20048;-66
2023/08/28 00:03:30;;;;;;;11.25;9.05;;;21.70;99.90;;;;;;5054268;28;20039;-66
2023/08/28 00:05:55;;;;;;;9.80;8.90;;;21.60;99.90;;;;;;5046049;28;20044;-66
2023/08/28 00:08:21;;;;;;;9.23;8.43;;;21.50;99.90;;;;;;5047482;28;20029;-66
2023/08/28 00:10:47;;;;;;;9.30;8.43;;;21.50;99.90;;;;;;5049468;28;20036;-66
2023/08/28 00:13:12;;;;;;;9.75;8.25;;;21.60;99.90;;;;;;5048211;28;20040;-66
2023/08/28 00:15:38;;;;;;;9.75;8.75;;;21.60;99.90;;;;;;5039279;28;20032;-66
2023/08/28 00:18:04;;;;;;;9.50;8.18;;;21.60;99.90;;;;;;5050942;28;20037;-66
2023/08/28 00:20:30;;;;;;;10.18;8.73;;;21.60;99.90;;;;;;5067630;28;20135;-65
2023/08/28 00:22:55;;;;;;;9.90;8.85;;;21.60;99.90;;;;;;5068272;28;20040;-66
2023/08/28 00:25:21;;;;;;;9.90;8.93;;;21.60;99.90;;;;;;5066247;28;20570;-66
2023/08/28 00:27:47;;;;;;;9.43;8.63;;;21.60;99.90;;;;;;5066420;28;20064;-66
2023/08/28 00:30:12;;;;;;;9.63;8.68;;;21.70;99.90;;;;;;5066647;28;20020;-66
2023/08/28 00:32:38;;;;;;;9.88;8.98;;;21.60;99.90;;;;;;5066460;28;20094;-66
2023/08/28 00:35:05;;;;;;;8.55;7.85;;;21.60;99.90;;;;;;5070552;28;20761;-66
2023/08/28 00:37:31;;;;;;;9.90;8.75;;;21.60;99.90;;;;;;5067485;28;20045;-66
2023/08/28 00:39:57;;;;;;;9.40;8.48;;;21.50;99.90;;;;;;5066141;28;20540;-67
2023/08/28 00:42:23;;;;;;;9.65;8.75;;;21.40;99.90;;;;;;5051063;28;20055;-66
2023/08/28 00:44:48;;;;;;;9.68;8.73;;;21.40;99.90;;;;;;5070223;28;20044;-66
2023/08/28 00:47:14;;;;;;;9.32;8.43;;;21.40;99.90;;;;;;5073499;28;20067;-66
2023/08/28 00:49:40;;;;;;;11.55;9.35;;;21.30;99.90;;;;;;5062468;28;21106;-66
2023/08/28 00:52:07;;;;;;;9.98;8.98;;;21.40;99.90;;;;;;5063122;28;20040;-73
2023/08/28 00:54:32;;;;;;;11.13;9.82;;;21.30;99.90;;;;;;5065821;28;20044;-73
2023/08/28 00:56:59;;;;;;;9.93;8.88;;;21.30;99.90;;;;;;5066419;28;20090;-73
2023/08/28 00:59:27;;;;;;;10.43;9.00;;;21.30;99.90;;;;;;5064244;28;20048;-73
2023/08/28 01:01:53;;;;;;;9.30;8.55;;;21.30;99.90;;;;;;5066616;28;24278;-72
2023/08/28 01:04:19;;;;;;;9.55;8.75;;;21.30;99.90;;;;;;5063946;28;20050;-72
2023/08/28 01:06:53;;;;;;;10.45;8.55;;;21.40;99.90;;;;;;5064187;28;20505;-72
2023/08/28 01:09:42;;;;;;;10.00;9.00;;;21.40;99.90;;;;;;5069498;28;20037;-73
2023/08/28 01:12:23;;;;;;;9.30;8.30;;;21.40;99.90;;;;;;5058669;28;20132;-73
2023/08/28 01:15:07;;;;;;;10.85;9.52;;;21.40;99.90;;;;;;5072748;28;20035;-73
2023/08/28 01:17:35;;;;;;;11.65;8.40;;;21.40;99.90;;;;;;5067132;28;20059;-73
2023/08/28 01:20:01;;;;;;;12.95;8.32;;;21.50;99.90;;;;;;5070318;28;20055;-73
2023/08/28 01:22:38;;;;;;;9.23;8.43;;;21.40;99.90;;;;;;5069793;28;20043;-73
2023/08/28 01:25:12;;;;;;;8.88;8.07;;;21.40;99.90;;;;;;5070669;28;20143;-73
2023/08/28 01:27:41;;;;;;;9.20;8.10;;;21.40;99.90;;;;;;5053010;28;20484;-73
2023/08/28 01:30:07;;;;;;;9.07;7.65;;;21.30;99.90;;;;;;5071323;28;20148;-74
2023/08/28 01:32:33;;;;;;;10.07;8.95;;;21.20;99.90;;;;;;5072063;28;20036;-73
2023/08/28 01:35:00;;;;;;;9.52;8.55;;;21.20;99.90;;;;;;5068574;28;20039;-72
2023/08/28 01:37:30;;;;;;;10.05;8.98;;;21.20;99.90;;;;;;5072550;28;20047;-73
2023/08/28 01:39:59;;;;;;;9.77;8.88;;;21.10;99.90;;;;;;5069464;28;20032;-73
2023/08/28 01:42:26;;;;;;;10.02;9.02;;;21.10;99.90;;;;;;5070509;28;20125;-72
2023/08/28 01:44:54;;;;;;;11.50;9.93;;;21.10;99.90;;;;;;5072746;28;20029;-66
2023/08/28 01:47:22;;;;;;;11.60;9.27;;;21.00;99.90;;;;;;5069790;28;20133;-73
2023/08/28 01:49:48;;;;;;;9.88;8.93;;;21.00;99.90;;;;;;5073920;28;20046;-73
2023/08/28 01:52:14;;;;;;;9.93;9.02;;;20.90;99.90;;;;;;5072652;28;20029;-73
2023/08/28 01:54:39;;;;;;;11.68;9.38;;;20.90;99.90;;;;;;5058275;28;20058;-72
2023/08/28 01:57:05;;;;;;;10.43;8.57;;;21.00;99.90;;;;;;5070700;28;20032;-72
2023/08/28 01:59:30;;;;;;;9.25;8.43;;;21.00;99.90;;;;;;5071491;28;21006;-73
2023/08/28 02:01:56;;;;;;;9.15;8.35;;;21.00;99.90;;;;;;5068330;28;20110;-73
2023/08/28 02:04:22;;;;;;;10.18;8.95;;;21.00;99.90;;;;;;5072507;28;20032;-73
2023/08/28 02:06:47;;;;;;;10.27;9.38;;;21.00;99.90;;;;;;5068887;28;20036;-73
2023/08/28 02:09:13;;;;;;;9.80;8.93;;;20.90;99.90;;;;;;5057645;28;20043;-73
2023/08/28 02:11:38;;;;;;;10.20;9.25;;;20.90;99.90;;;;;;5068244;28;20032;-72
2023/08/28 02:14:04;;;;;;;10.05;9.00;;;20.90;99.90;;;;;;5070055;28;20032;-73
2023/08/28 02:16:30;;;;;;;9.70;8.82;;;20.80;99.90;;;;;;5071861;28;20044;-72
2023/08/28 02:18:55;;;;;;;9.93;9.00;;;20.80;99.90;;;;;;5071372;28;20071;-72
2023/08/28 02:21:21;;;;;;;9.57;8.70;;;20.80;99.90;;;;;;5066062;28;20535;-65
2023/08/28 02:23:46;;;;;;;9.63;8.80;;;20.80;99.90;;;;;;5073228;28;20028;-72
2023/08/28 02:26:12;;;;;;;9.27;8.35;;;20.80;99.90;;;;;;5064969;28;20039;-73
2023/08/28 02:28:38;;;;;;;13.60;8.88;;;20.90;99.90;;;;;;5065658;28;20040;-73
2023/08/28 02:31:03;;;;;;;9.23;8.40;;;20.90;99.90;;;;;;5066173;28;20140;-73
2023/08/28 02:33:29;;;;;;;9.43;8.68;;;20.90;99.90;;;;;;5068965;28;20078;-72
2023/08/28 02:35:55;;;;;;;9.13;8.32;;;20.90;99.90;;;;;;5069867;28;20453;-72
2023/08/28 02:38:20;;;;;;;8.50;7.70;;;20.90;99.90;;;;;;5072708;28;20142;-72
2023/08/28 02:40:46;;;;;;;10.23;8.93;;;20.90;99.90;;;;;;5069976;28;20048;-73
2023/08/28 02:43:13;;;;;;;10.27;7.68;;;20.90;99.90;;;;;;5070220;28;20458;-73
2023/08/28 02:45:39;;;;;;;7.47;6.72;;;21.00;99.90;;;;;;5063402;28;20035;-73
2023/08/28 02:48:05;;;;;;;8.13;7.32;;;21.00;99.90;;;;;;5069369;28;20052;-72
2023/08/28 02:50:31;;;;;;;8.27;7.20;;;21.10;99.90;;;;;;5071073;28;20032;-73
2023/08/28 02:52:57;;;;;;;7.75;7.15;;;21.20;99.90;;;;;;5067131;28;20309;-73
2023/08/28 02:55:23;;;;;;;10.02;7.07;;;21.20;99.90;;;;;;5068364;28;20040;-72
2023/08/28 02:57:49;;;;;;;7.75;7.05;;;21.30;99.90;;;;;;5072088;28;20135;-72
2023/08/28 03:00:15;;;;;;;8.10;7.30;;;21.30;99.90;;;;;;5062515;28;20042;-73
2023/08/28 03:02:41;;;;;;;7.40;6.70;;;21.40;99.90;;;;;;5066851;28;20044;-72
2023/08/28 03:05:08;;;;;;;7.85;6.82;;;21.40;99.90;;;;;;5073495;28;20034;-72
2023/08/28 03:07:34;;;;;;;8.85;7.15;;;21.40;99.90;;;;;;5057432;28;20138;-73
2023/08/28 03:09:59;;;;;;;8.38;6.20;;;21.50;99.90;;;;;;5060248;28;20808;-73
2023/08/28 03:12:25;;;;;;;7.53;6.88;;;21.50;99.90;;;;;;5065444;28;20046;-74
2023/08/28 03:14:50;;;;;;;8.07;7.38;;;21.60;99.90;;;;;;5073350;28;20044;-73
2023/08/28 03:17:16;;;;;;;6.65;6.05;;;21.60;99.90;;;;;;5063512;28;20052;-73
2023/08/28 03:19:42;;;;;;;6.45;5.88;;;21.60;99.90;;;;;;5059673;28;20044;-73
2023/08/28 03:22:07;;;;;;;8.93;6.18;;;21.70;99.90;;;;;;5053989;28;20056;-73
2023/08/28 03:24:33;;;;;;;8.68;6.35;;;21.70;99.90;;;;;;5056548;28;20037;-73
2023/08/28 03:26:58;;;;;;;8.15;7.35;;;21.70;99.90;;;;;;5034760;28;20037;-73
2023/08/28 03:29:24;;;;;;;7.20;6.50;;;21.60;99.90;;;;;;5055379;28;20059;-73
2023/08/28 03:31:50;;;;;;;6.35;5.75;;;21.60;99.90;;;;;;5051611;28;20066;-73
2023/08/28 03:34:17;;;;;;;6.55;6.00;;;21.60;99.90;;;;;;5055026;28;20125;-73
2023/08/28 03:36:42;;;;;;;7.40;5.88;;;21.60;99.90;;;;;;5053101;28;20029;-67
2023/08/28 03:39:08;;;;;;;6.50;5.90;;;21.60;99.90;;;;;;5057553;28;20037;-66
2023/08/28 03:41:34;;;;;;;6.53;5.93;;;21.70;99.90;;;;;;5055216;28;20111;-67
2023/08/28 03:43:59;;;;;;;7.38;6.10;;;21.70;99.90;;;;;;5052698;28;20492;-67
2023/08/28 03:46:25;;;;;;;7.07;6.47;;;21.70;99.90;;;;;;5055949;28;20512;-66
2023/08/28 03:48:51;;;;;;;7.82;6.97;;;21.60;99.90;;;;;;5057132;28;20040;-67
2023/08/28 03:51:16;;;;;;;7.00;6.30;;;21.60;99.90;;;;;;5053598;28;20093;-67
2023/08/28 03:53:42;;;;;;;7.53;6.80;;;21.60;99.90;;;;;;5058782;28;20612;-66
2023/08/28 03:56:08;;;;;;;7.30;6.60;;;21.60;99.90;;;;;;5059399;28;20143;-66
2023/08/28 03:58:33;;;;;;;7.32;6.63;;;21.60;99.90;;;;;;5057122;28;20044;-66
2023/08/28 04:00:59;;;;;;;15.93;6.60;;;21.60;99.90;;;;;;5048285;28;20079;-66
2023/08/28 04:03:25;;;;;;;7.40;6.25;;;21.60;99.90;;;;;;5053640;28;20144;-67
2023/08/28 04:05:52;;;;;;;7.53;6.78;;;21.60;99.90;;;;;;5055643;28;20037;-66
2023/08/28 04:08:19;;;;;;;7.15;5.80;;;21.50;99.90;;;;;;5052371;28;20044;-66
2023/08/28 04:10:45;;;;;;;7.30;5.55;;;21.60;99.90;;;;;;5054296;28;20634;-66
2023/08/28 04:13:11;;;;;;;6.45;5.90;;;21.60;99.90;;;;;;5033162;28;20072;-73
2023/08/28 04:15:37;;;;;;;8.18;5.82;;;21.60;99.90;;;;;;5053824;28;20143;-73
2023/08/28 04:18:04;;;;;;;9.75;6.28;;;21.60;99.90;;;;;;5066092;28;20044;-73
2023/08/28 04:20:30;;;;;;;10.32;6.35;;;21.60;99.90;;;;;;5074101;28;20639;-73
2023/08/28 04:22:56;;;;;;;6.85;6.25;;;21.60;99.90;;;;;;5071401;28;20798;-73
2023/08/28 04:25:21;;;;;;;8.20;7.47;;;21.70;99.90;;;;;;5055463;28;20047;-73
2023/08/28 04:27:47;;;;;;;10.18;7.80;;;21.70;99.90;;;;;;5070966;28;20145;-74
2023/08/28 04:30:13;;;;;;;10.23;7.13;;;21.60;99.90;;;;;;5077476;28;20469;-75
2023/08/28 04:32:39;;;;;;;8.05;7.25;;;21.60;99.90;;;;;;5075845;28;20562;-74
2023/08/28 04:35:06;;;;;;;8.13;7.32;;;21.50;99.90;;;;;;5077218;28;20050;-74
2023/08/28 04:37:32;;;;;;;13.98;7.93;;;21.50;99.90;;;;;;5074621;28;20055;-74
2023/08/28 04:39:58;;;;;;;8.90;7.82;;;21.50;99.90;;;;;;5071508;28;20032;-73
2023/08/28 04:42:24;;;;;;;9.15;8.25;;;21.40;99.90;;;;;;5074666;28;20075;-73
2023/08/28 04:44:49;;;;;;;10.20;8.05;;;21.40;99.90;;;;;;5073135;28;20036;-74
2023/08/28 04:47:15;;;;;;;8.77;7.97;;;21.30;99.90;;;;;;5069875;28;20037;-74
2023/08/28 04:49:41;;;;;;;11.40;8.40;;;21.30;99.90;;;;;;5077382;28;20455;-74
2023/08/28 04:52:07;;;;;;;9.32;8.43;;;21.40;99.90;;;;;;5067023;28;20064;-74
2023/08/28 04:54:33;;;;;;;10.60;8.70;;;21.40;99.90;;;;;;5067594;28;20090;-73
2023/08/28 04:56:59;;;;;;;9.60;8.52;;;21.40;99.90;;;;;;5071846;28;20117;-73
2023/08/28 04:59:25;;;;;;;43.88;10.13;;;21.40;99.90;;;;;;5074382;28;20040;-74
2023/08/28 05:01:51;;;;;;;11.00;8.27;;;21.40;99.90;;;;;;5073265;28;20044;-73
2023/08/28 05:04:16;;;;;;;8.55;7.53;;;21.50;99.90;;;;;;5069648;28;20134;-74
2023/08/28 05:06:42;;;;;;;8.73;7.90;;;21.60;99.90;;;;;;5067839;28;20524;-73
2023/08/28 05:09:08;;;;;;;8.98;8.15;;;21.60;99.90;;;;;;5070849;28;20035;-68
2023/08/28 05:11:33;;;;;;;8.88;8.07;;;21.70;99.90;;;;;;5067801;28;20032;-68
2023/08/28 05:13:59;;;;;;;8.73;7.47;;;21.90;99.90;;;;;;5060734;28;20044;-68
2023/08/28 05:16:25;;;;;;;8.40;7.65;;;22.00;99.90;;;;;;5067940;28;20036;-68
2023/08/28 05:18:50;;;;;;;8.00;7.20;;;22.10;99.90;;;;;;5064965;28;20048;-68
2023/08/28 05:21:16;;;;;;;7.60;7.00;;;22.20;99.90;;;;;;5066647;28;20051;-68
2023/08/28 05:23:41;;;;;;;8.55;7.78;;;22.30;99.90;;;;;;5064055;28;21437;-69
2023/08/28 05:26:07;;;;;;;8.55;7.07;;;22.40;99.90;;;;;;5061251;28;20040;-68
2023/08/28 05:28:35;;;;;;;7.95;6.28;;;22.50;99.90;;;;;;5061209;28;20436;-69
2023/08/28 05:31:04;;;;;;;8.20;7.40;;;22.60;99.90;;;;;;5068256;28;20049;-67
2023/08/28 05:33:30;;;;;;;8.75;7.25;;;22.70;99.90;;;;;;5066569;28;20032;-68
2023/08/28 05:35:56;;;;;;;13.70;7.35;;;22.70;99.90;;;;;;5062425;28;20024;-68
2023/08/28 05:38:22;;;;;;;8.13;6.78;;;22.80;99.90;;;;;;5048408;28;20592;-68
2023/08/28 05:40:47;;;;;;;14.88;7.15;;;22.90;99.90;;;;;;5059831;28;20067;-68
2023/08/28 05:43:13;;;;;;;17.92;8.13;;;23.00;99.90;;;;;;5071029;28;20049;-69
2023/08/28 05:45:39;;;;;;;12.93;7.50;;;23.10;99.90;;;;;;5069233;28;20054;-69
2023/08/28 05:48:05;;;;;;;23.60;7.50;;;23.20;99.90;;;;;;5073179;28;20048;-68
2023/08/28 05:50:30;;;;;;;10.35;8.23;;;23.20;99.90;;;;;;5070615;28;20040;-67
2023/08/28 05:52:56;;;;;;;9.68;8.15;;;23.30;99.90;;;;;;5069432;28;20040;-67
2023/08/28 05:55:22;;;;;;;11.73;7.82;;;23.20;99.90;;;;;;5076349;28;20099;-68
2023/08/28 05:57:48;;;;;;;8.65;7.85;;;23.30;99.90;;;;;;5069396;28;20147;-68
2023/08/28 06:00:14;;;;;;;14.13;8.77;;;23.30;99.90;;;;;;5075664;28;20036;-68
2023/08/28 06:02:40;;;;;;;9.15;8.35;;;23.40;99.90;;;;;;5071786;28;20060;-68
2023/08/28 06:05:07;;;;;;;12.48;8.48;;;23.40;99.90;;;;;;5075637;28;20051;-68
2023/08/28 06:07:33;;;;;;;8.68;7.90;;;23.40;99.90;;;;;;5069574;28;20039;-68
2023/08/28 06:09:59;;;;;;;13.23;9.00;;;23.40;99.90;;;;;;5073829;28;20428;-67
2023/08/28 06:12:27;;;;;;;18.60;8.18;;;23.40;99.90;;;;;;5071722;28;20237;-68
2023/08/28 06:14:54;;;;;;;11.50;8.38;;;23.50;99.90;;;;;;5071509;28;20028;-68
2023/08/28 06:17:21;;;;;;;9.02;8.13;;;23.50;99.90;;;;;;5066984;28;20086;-68
2023/08/28 06:19:46;;;;;;;9.38;8.40;;;23.60;99.90;;;;;;5066472;28;20032;-68
2023/08/28 06:22:12;;;;;;;10.88;8.35;;;23.60;99.90;;;;;;5072844;28;20048;-68
2023/08/28 06:24:37;;;;;;;9.98;8.98;;;23.70;99.90;;;;;;5055124;28;20118;-68
2023/08/28 06:27:03;;;;;;;9.35;8.07;;;23.80;99.90;;;;;;5070340;28;20040;-67
2023/08/28 06:29:29;;;;;;;8.45;7.75;;;23.90;99.90;;;;;;5070675;28;20850;-68
2023/08/28 06:31:55;;;;;;;9.43;8.55;;;23.90;99.90;;;;;;5057798;28;20053;-68
2023/08/28 06:34:20;;;;;;;10.60;8.38;;;24.10;99.90;;;;;;5056055;28;20063;-68
2023/08/28 06:36:49;;;;;;;8.77;7.80;;;24.20;99.90;;;;;;5070850;28;20074;-68
2023/08/28 06:39:15;;;;;;;8.65;7.85;;;24.30;99.90;;;;;;5079965;28;20150;-68
2023/08/28 06:41:40;;;;;;;9.00;8.10;;;24.40;99.90;;;;;;5077960;28;20040;-68
2023/08/28 06:44:06;;;;;;;8.68;7.88;;;24.50;99.90;;;;;;5076533;28;20048;-68
2023/08/28 06:46:31;;;;;;;10.48;9.18;;;24.50;99.90;;;;;;5053622;28;20070;-68
2023/08/28 06:48:58;;;;;;;9.80;8.23;;;24.50;99.90;;;;;;5074022;28;20085;-68
2023/08/28 06:51:23;;;;;;;8.82;8.02;;;24.60;99.90;;;;;;5068269;28;20028;-68
2023/08/28 06:53:50;;;;;;;9.07;8.27;;;24.60;99.90;;;;;;5067456;28;20557;-68
2023/08/28 06:56:16;;;;;;;9.07;8.27;;;24.80;99.90;;;;;;5078056;28;20028;-68
2023/08/28 06:58:42;;;;;;;9.38;8.43;;;25.00;99.90;;;;;;5069295;28;20476;-68
2023/08/28 07:01:07;;;;;;;9.15;8.25;;;25.10;99.90;;;;;;5076140;28;20515;-69
2023/08/28 07:03:33;;;;;;;8.07;7.38;;;25.30;99.90;;;;;;5030716;28;20039;-68
2023/08/28 07:05:59;;;;;;;8.63;7.80;;;25.50;99.90;;;;;;5073377;28;20039;-68
2023/08/28 07:08:25;;;;;;;9.48;7.72;;;25.60;99.90;;;;;;5073193;28;20090;-68
2023/08/28 07:10:50;;;;;;;8.55;7.65;;;25.80;99.90;;;;;;5068064;28;20178;-68
2023/08/28 07:13:16;;;;;;;13.02;8.35;;;25.90;99.90;;;;;;5073182;28;20052;-68
2023/08/28 07:15:42;;;;;;;11.82;9.25;;;26.00;99.90;;;;;;5073004;28;20048;-67
2023/08/28 07:18:08;;;;;;;9.93;8.82;;;26.10;99.90;;;;;;5056701;28;20055;-67
2023/08/28 07:20:35;;;;;;;9.05;8.20;;;26.20;99.90;;;;;;5066380;28;20137;-68
2023/08/28 07:23:00;;;;;;;13.68;8.70;;;26.30;99.90;;;;;;5071183;28;20127;-68
2023/08/28 07:25:27;;;;;;;10.00;7.88;;;26.40;99.90;;;;;;5069356;28;20508;-68
2023/08/28 07:27:54;;;;;;;9.63;8.05;;;26.50;99.90;;;;;;5070406;28;20589;-68
2023/08/28 07:30:20;;;;;;;9.15;8.35;;;26.60;99.90;;;;;;5071860;28;20033;-68
2023/08/28 07:32:45;;;;;;;9.20;8.30;;;26.80;99.90;;;;;;5069947;28;20460;-68
2023/08/28 07:35:11;;;;;;;8.40;7.63;;;26.80;99.90;;;;;;5075056;28;20048;-68
2023/08/28 07:37:37;;;;;;;8.55;7.38;;;26.80;99.90;;;;;;5072275;28;20047;-68
2023/08/28 07:40:06;;;;;;;11.13;8.05;;;27.00;99.90;;;;;;5074456;28;20040;-68
2023/08/28 07:42:35;;;;;;;8.80;8.00;;;27.10;99.90;;;;;;5070086;28;20063;-68
2023/08/28 07:45:02;;;;;;;9.70;7.70;;;27.10;99.90;;;;;;5059382;28;20127;-68
2023/08/28 07:47:28;;;;;;;11.32;7.90;;;27.20;99.90;;;;;;5061045;28;20107;-68
2023/08/28 07:49:54;;;;;;;11.63;7.32;;;27.10;99.90;;;;;;5063736;28;20047;-68
2023/08/28 07:52:20;;;;;;;12.75;8.68;;;27.10;99.90;;;;;;5061649;28;20036;-68
2023/08/28 07:54:46;;;;;;;12.20;8.43;;;27.10;99.90;;;;;;5061343;28;20074;-68
2023/08/28 07:57:12;;;;;;;8.43;7.63;;;27.20;99.90;;;;;;5068908;28;20085;-68
2023/08/28 07:59:37;;;;;;;10.18;7.47;;;27.20;99.90;;;;;;5070860;28;20036;-68
2023/08/28 08:02:07;;;;;;;11.60;8.43;;;27.30;99.90;;;;;;5068673;28;20046;-68
2023/08/28 08:04:33;;;;;;;8.95;8.05;;;27.40;99.90;;;;;;5071495;28;20025;-67
2023/08/28 08:06:59;;;;;;;9.27;8.38;;;27.40;99.90;;;;;;5069758;28;20397;-68
2023/08/28 08:09:24;;;;;;;8.52;7.78;;;27.50;99.90;;;;;;5053503;28;20036;-68
2023/08/28 08:11:51;;;;;;;12.25;7.97;;;27.60;99.90;;;;;;5074624;28;20062;-67
2023/08/28 08:14:17;;;;;;;9.57;8.52;;;27.70;99.90;;;;;;5069769;28;20485;-67
2023/08/28 08:16:43;;;;;;;10.35;7.78;;;27.60;99.90;;;;;;5073647;28;20508;-68
2023/08/28 08:19:08;;;;;;;9.20;8.25;;;27.60;99.90;;;;;;5067042;28;20048;-68
2023/08/28 08:21:34;;;;;;;8.88;7.97;;;27.70;99.90;;;;;;5079386;28;20044;-68
2023/08/28 08:24:00;;;;;;;8.15;7.35;;;27.70;99.90;;;;;;5074789;28;20465;-67
2023/08/28 08:26:26;;;;;;;9.48;8.35;;;27.80;99.90;;;;;;5053937;28;20571;-68
2023/08/28 08:28:52;;;;;;;9.95;8.40;;;27.90;99.90;;;;;;5077884;28;20032;-68
2023/08/28 08:31:18;;;;;;;8.90;8.00;;;27.90;99.90;;;;;;5076044;28;20090;-68
2023/08/28 08:33:44;;;;;;;8.95;8.15;;;27.90;99.90;;;;;;5077659;28;20036;-68
2023/08/28 08:36:13;;;;;;;8.63;7.68;;;28.00;99.90;;;;;;5058667;28;20032;-68
2023/08/28 08:38:40;;;;;;;9.88;7.70;;;28.10;99.90;;;;;;5064310;28;20036;-68
2023/08/28 08:41:08;;;;;;;11.82;7.65;;;28.10;99.90;;;;;;5075174;28;20040;-68
2023/08/28 08:43:34;;;;;;;9.90;8.10;;;28.10;99.90;;;;;;5070545;28;20187;-68
2023/08/28 08:46:04;;;;;;;8.32;7.47;;;28.20;99.90;;;;;;5066553;28;20067;-68
2023/08/28 08:48:33;;;;;;;8.20;7.28;;;28.40;99.90;;;;;;5076311;28;20197;-73
2023/08/28 08:51:04;;;;;;;8.52;7.72;;;28.50;99.90;;;;;;5063971;28;20029;-73
2023/08/28 08:54:04;;;;;;;9.07;7.83;;;28.50;99.90;;;;;;5048742;28;20036;-73
2023/08/28 08:56:31;;;;;;;10.98;8.82;;;28.40;99.90;;;;;;5072710;28;20490;-73
2023/08/28 08:58:58;;;;;;;8.85;8.00;;;28.30;99.90;;;;;;5074882;28;20032;-73
2023/08/28 09:01:26;;;;;;;9.75;8.05;;;28.30;99.90;;;;;;5077863;28;20054;-73
2023/08/28 09:03:52;;;;;;;8.98;8.07;;;28.30;99.90;;;;;;5074831;28;20558;-73
2023/08/28 09:06:19;;;;;;;9.30;8.10;;;28.20;99.90;;;;;;5073996;28;20144;-73
2023/08/28 09:08:46;;;;;;;10.77;7.65;;;28.10;99.90;;;;;;5067157;28;20048;-68
2023/08/28 09:11:11;;;;;;;8.07;7.35;;;28.20;99.90;;;;;;5072032;28;20040;-68
2023/08/28 09:13:38;;;;;;;14.23;8.50;;;28.40;99.90;;;;;;5073524;28;20619;-68
2023/08/28 09:16:04;;;;;;;9.60;7.93;;;28.40;99.90;;;;;;5080966;28;20043;-68
2023/08/28 09:18:30;;;;;;;8.48;7.57;;;28.50;99.90;;;;;;5072041;28;20063;-69
2023/08/28 09:21:09;;;;;;;14.70;7.65;;;28.70;99.90;;;;;;5076095;28;20047;-68
2023/08/28 09:23:45;;;;;;;10.25;7.45;;;28.70;99.90;;;;;;5069306;28;20040;-68
2023/08/28 09:26:15;;;;;;;9.07;7.43;;;28.80;99.90;;;;;;5073632;28;20634;-68
2023/08/28 09:28:41;;;;;;;12.18;7.90;;;28.70;99.90;;;;;;5055175;28;20036;-68
2023/08/28 09:31:07;;;;;;;9.15;7.35;;;28.70;99.90;;;;;;5072502;28;20028;-68
2023/08/28 09:33:44;;;;;;;8.18;7.25;;;28.80;99.90;;;;;;5072660;28;20105;-68
2023/08/28 09:36:15;;;;;;;10.90;7.13;;;28.80;99.90;;;;;;5076750;28;20046;-68
2023/08/28 09:38:42;;;;;;;10.68;7.03;;;28.80;99.90;;;;;;5063759;28;20043;-68
2023/08/28 09:41:09;;;;;;;10.10;7.07;;;28.80;99.90;;;;;;5075216;28;20191;-68
2023/08/28 09:43:35;;;;;;;10.52;6.78;;;28.90;99.90;;;;;;5054353;28;20144;-68
2023/08/28 09:46:02;;;;;;;10.30;7.05;;;29.00;99.90;;;;;;5075730;28;20035;-73
2023/08/28 09:48:32;;;;;;;12.63;7.88;;;29.20;99.90;;;;;;5074131;28;20218;-73
2023/08/28 09:51:06;;;;;;;7.45;6.00;;;29.30;99.90;;;;;;5072759;28;20040;-73
2023/08/28 09:53:32;;;;;;;8.57;7.07;;;29.50;99.90;;;;;;5070962;28;20114;-73
2023/08/28 09:55:58;;;;;;;8.38;6.72;;;29.50;99.90;;;;;;5074152;28;20031;-73
2023/08/28 09:58:26;;;;;;;7.55;5.70;;;29.50;99.90;;;;;;5065320;28;20036;-73
2023/08/28 10:00:53;;;;;;;9.38;6.07;;;29.60;99.90;;;;;;5072512;28;20043;-73
2023/08/28 10:03:21;;;;;;;10.00;5.40;;;29.70;99.90;;;;;;5073661;28;20483;-68
2023/08/28 10:05:48;;;;;;;7.30;5.13;;;29.70;99.90;;;;;;5066114;28;20167;-68
2023/08/28 10:08:15;;;;;;;7.80;4.68;;;29.80;99.90;;;;;;5054590;28;20040;-68
2023/08/28 10:10:51;;;;;;;9.15;5.43;;;29.80;99.90;;;;;;5072019;28;20035;-67
2023/08/28 10:13:21;;;;;;;7.90;4.95;;;29.80;99.90;;;;;;5066213;28;20034;-68
2023/08/28 10:16:03;;;;;;;7.10;4.70;;;29.70;99.90;;;;;;5077714;28;20028;-68
2023/08/28 10:18:34;;;;;;;;;;;29.70;99.90;;;;;;5070355;28;20114;-68
2023/08/28 10:21:00;;;;;;;5.37;4.73;;;29.70;99.90;;;;;;5070041;28;19922;-73
2023/08/28 10:23:28;;;;;;;9.25;5.05;;;29.60;99.90;;;;;;5070287;28;20400;-73
2023/08/28 10:25:55;;;;;;;5.93;4.65;;;29.70;99.90;;;;;;5070526;28;20043;-73
2023/08/28 10:28:23;;;;;;;10.52;5.20;;;29.70;99.90;;;;;;5070428;28;20078;-73
2023/08/28 10:30:51;;;;;;;3.97;3.67;;;29.80;99.90;;;;;;5072073;28;20036;-73
2023/08/28 10:33:22;;;;;;;8.65;4.72;;;29.90;99.90;;;;;;5071247;28;20032;-74
2023/08/28 10:35:51;;;;;;;11.45;4.15;;;29.90;99.90;;;;;;5073183;28;20036;-73
2023/08/28 10:38:20;;;;;;;5.47;4.43;;;30.00;99.90;;;;;;5050265;28;20048;-73
2023/08/28 10:40:49;;;;;;;5.80;4.75;;;30.10;99.90;;;;;;5070915;28;20067;-68
2023/08/28 10:43:16;;;;;;;8.98;4.60;;;30.20;99.90;;;;;;5075571;28;20036;-65
2023/08/28 10:45:43;;;;;;;4.78;4.25;;;30.30;99.90;;;;;;5069671;28;20644;-68
2023/08/28 10:48:09;;;;;;;6.88;4.10;;;30.50;99.90;;;;;;5076902;28;20143;-68
2023/08/28 10:50:38;;;;;;;5.25;4.10;;;30.60;99.90;;;;;;5078104;28;20100;-68
2023/08/28 10:53:05;;;;;;;6.43;4.68;;;30.70;99.90;;;;;;5073196;28;20461;-68
2023/08/28 10:55:31;;;;;;;8.45;4.63;;;30.80;99.90;;;;;;5074503;28;20119;-68
2023/08/28 10:58:03;;;;;;;8.18;4.28;;;30.90;99.90;;;;;;5073415;28;20143;-74
2023/08/28 11:00:29;;;;;;;5.78;4.63;;;31.10;99.90;;;;;;5071202;28;20040;-74
2023/08/28 11:03:14;;;;;;;9.07;4.70;;;31.20;99.90;;;;;;5073643;28;20060;-74
2023/08/28 11:05:41;;;;;;;9.32;4.40;;;31.20;99.90;;;;;;5072998;28;20040;-73
2023/08/28 11:08:11;;;;;;;8.98;4.03;;;31.20;99.90;;;;;;5076778;28;20102;-73
2023/08/28 11:10:44;;;;;;;8.55;4.45;;;31.20;99.90;;;;;;5067581;28;20040;-74
2023/08/28 11:13:18;;;;;;;7.68;3.88;;;31.20;99.90;;;;;;5071954;28;20047;-74
2023/08/28 11:15:44;;;;;;;5.57;3.85;;;31.30;99.90;;;;;;5065167;28;20036;-68
2023/08/28 11:18:24;;;;;;;5.78;4.18;;;31.50;99.90;;;;;;5075052;28;20051;-68
2023/08/28 11:20:53;;;;;;;8.85;4.30;;;31.60;99.90;;;;;;5073389;28;20093;-68
2023/08/28 11:23:34;;;;;;;7.43;4.13;;;31.70;99.90;;;;;;5064570;28;20098;-68
2023/08/28 11:26:06;;;;;;;5.70;4.18;;;31.90;99.90;;;;;;5078288;28;21054;-69
2023/08/28 11:28:45;;;;;;;8.13;3.92;;;32.10;99.70;;;;;;5074876;28;21033;-69
2023/08/28 11:31:12;;;;;;;7.50;4.20;;;32.10;99.20;;;;;;5065253;28;20067;-68
2023/08/28 11:33:46;;;;;;;11.20;4.22;;;32.10;97.80;;;;;;5065230;28;20036;-68
2023/08/28 11:36:22;;;;;;;7.78;3.78;;;32.10;97.50;;;;;;5075606;28;20086;-68
2023/08/28 11:38:49;;;;;;;6.60;3.75;;;32.10;97.00;;;;;;5064738;28;20064;-68
2023/08/28 11:41:16;;;;;;;9.98;4.38;;;32.10;96.90;;;;;;5079665;28;20501;-68
2023/08/28 11:43:43;;;;;;;18.17;4.20;;;32.00;96.30;;;;;;5076457;28;20040;-68
2023/08/28 11:46:10;;;;;;;8.43;4.10;;;32.00;95.90;;;;;;5075739;28;20032;-68
2023/08/28 11:48:37;;;;;;;5.65;4.30;;;32.00;96.50;;;;;;5069250;28;20043;-68
2023/08/28 11:51:08;;;;;;;8.95;4.30;;;32.00;95.40;;;;;;5070555;28;20101;-68
2023/08/28 11:53:40;;;;;;;4.72;3.70;;;32.10;95.40;;;;;;5075432;28;20032;-68
2023/08/28 11:56:07;;;;;;;8.68;3.55;;;32.10;95.50;;;;;;5077470;28;20062;-68
2023/08/28 11:58:34;;;;;;;6.10;3.70;;;32.30;96.10;;;;;;5058836;28;20095;-68
2023/08/28 12:01:05;;;;;;;9.32;3.97;;;32.40;94.10;;;;;;5073005;28;20047;-69
2023/08/28 12:03:31;;;;;;;7.65;4.10;;;32.30;94.10;;;;;;5072565;28;20035;-68
2023/08/28 12:06:17;;;;;;;6.00;3.80;;;32.20;93.80;;;;;;5075134;28;20423;-68
2023/08/28 12:08:44;;;;;;;8.38;3.90;;;32.20;93.50;;;;;;5069718;28;20040;-68
2023/08/28 12:11:13;;;;;;;3.83;3.42;;;32.20;95.00;;;;;;5067522;28;20028;-68
2023/08/28 12:13:39;;;;;;;7.43;4.10;;;32.30;94.10;;;;;;5073398;28;20134;-68
2023/08/28 12:16:11;;;;;;;6.22;4.38;;;32.40;93.10;;;;;;5073465;28;20085;-69
2023/08/28 12:18:47;;;;;;;6.88;3.97;;;32.40;93.10;;;;;;5076321;28;20079;-69
2023/08/28 12:21:15;;;;;;;10.57;3.83;;;32.60;92.90;;;;;;5069735;28;20063;-68
2023/08/28 12:23:56;;;;;;;8.00;3.63;;;32.60;93.00;;;;;;5073502;28;20055;-68
2023/08/28 12:26:24;;;;;;;7.72;3.63;;;32.60;92.10;;;;;;5066083;28;20481;-68
2023/08/28 12:28:50;;;;;;;9.80;3.90;;;32.60;92.60;;;;;;5066424;28;20126;-75
2023/08/28 12:31:27;;;;;;;7.13;4.13;;;32.60;92.20;;;;;;5070249;28;20036;-75
2023/08/28 12:33:54;;;;;;;8.77;3.72;;;32.70;91.60;;;;;;5073344;28;20447;-74
2023/08/28 12:36:26;;;;;;;5.07;3.58;;;32.80;91.80;;;;;;5055972;28;20362;-74
2023/08/28 12:38:51;;;;;;;5.72;3.97;;;32.90;92.40;;;;;;5073577;28;20115;-74
2023/08/28 12:41:17;;;;;;;7.85;3.38;;;33.00;91.10;;;;;;5067358;28;20176;-74
2023/08/28 12:43:45;;;;;;;5.72;3.20;;;33.00;90.70;;;;;;5076434;28;20857;-74
2023/08/28 12:46:12;;;;;;;12.40;4.15;;;33.00;89.70;;;;;;5057364;28;20033;-73